Time;durP1;ratioP1;P1;durP2;ratioP2;P2;SDS_P1;SDS_P2;PMS_P1;PMS_P2;Temp;Humidity;BMP_temperature;BMP_pressure;BME280_temperature;BME280_humidity;BME280_pressure;Samples;Min_cycle;Max_cycle;Signal;HPM_P1;HPM_P2
2021/06/09 00:00:47;;;;;;;14.83;6.10;;;15.50;99.70;;;;;;5051910;28;20451;-66
2021/06/09 00:03:13;;;;;;;15.90;6.10;;;15.40;99.70;;;;;;5051781;28;20890;-64
2021/06/09 00:05:40;;;;;;;17.67;6.37;;;15.50;99.70;;;;;;5051752;28;20440;-65
2021/06/09 00:08:06;;;;;;;16.40;5.90;;;15.40;99.70;;;;;;5051372;28;21069;-64
2021/06/09 00:10:33;;;;;;;16.00;5.90;;;15.40;99.70;;;;;;5051774;28;20484;-66
2021/06/09 00:13:01;;;;;;;14.60;7.43;;;15.40;99.70;;;;;;5051567;28;20448;-64
2021/06/09 00:15:28;;;;;;;14.97;6.10;;;15.40;99.70;;;;;;5051888;28;20967;-65
2021/06/09 00:17:55;;;;;;;17.00;7.03;;;15.30;99.70;;;;;;5051926;28;20475;-65
2021/06/09 00:20:23;;;;;;;14.60;6.10;;;15.20;99.70;;;;;;5051584;28;20452;-64
2021/06/09 00:22:49;;;;;;;13.93;5.77;;;15.20;99.70;;;;;;5051769;28;20450;-65
2021/06/09 00:25:17;;;;;;;13.97;5.97;;;15.20;99.70;;;;;;5051407;28;20867;-64
2021/06/09 00:27:44;;;;;;;16.13;5.97;;;15.20;99.70;;;;;;5051828;28;20468;-64
2021/06/09 00:30:17;;;;;;;15.70;6.80;;;15.20;99.70;;;;;;5051434;28;20490;-65
2021/06/09 00:32:44;;;;;;;16.53;5.77;;;15.30;99.70;;;;;;5051474;28;20443;-65
2021/06/09 00:35:11;;;;;;;14.30;6.13;;;15.20;99.70;;;;;;5051430;28;20504;-65
2021/06/09 00:37:37;;;;;;;14.30;5.67;;;15.30;99.70;;;;;;5051349;28;20471;-66
2021/06/09 00:40:05;;;;;;;16.07;6.53;;;15.30;99.70;;;;;;5051036;28;20466;-65
2021/06/09 00:42:31;;;;;;;19.27;6.67;;;15.40;99.70;;;;;;5051350;28;20501;-64
2021/06/09 00:44:58;;;;;;;18.17;7.50;;;15.30;99.70;;;;;;5051174;28;20691;-65
2021/06/09 00:47:25;;;;;;;15.60;6.93;;;15.40;99.70;;;;;;5051256;28;20848;-65
2021/06/09 00:49:52;;;;;;;16.50;6.30;;;15.40;99.70;;;;;;5051253;28;20486;-65
2021/06/09 00:52:23;;;;;;;19.87;6.83;;;15.50;99.70;;;;;;5051217;28;20443;-65
2021/06/09 00:54:49;;;;;;;14.57;5.77;;;15.50;99.70;;;;;;5050995;28;20459;-64
2021/06/09 00:57:16;;;;;;;21.67;6.57;;;15.50;99.70;;;;;;5050711;28;20467;-65
2021/06/09 00:59:42;;;;;;;15.03;6.50;;;15.40;99.70;;;;;;5051059;28;20443;-65
2021/06/09 01:02:09;;;;;;;14.20;6.00;;;15.40;99.70;;;;;;5050879;28;20440;-65
2021/06/09 01:04:37;;;;;;;14.10;5.80;;;15.40;99.70;;;;;;5050677;28;20448;-66
2021/06/09 01:07:04;;;;;;;15.60;6.23;;;15.40;99.70;;;;;;5050599;28;20468;-65
2021/06/09 01:09:30;;;;;;;18.87;7.23;;;15.50;99.70;;;;;;5050677;28;20479;-65
2021/06/09 01:11:57;;;;;;;15.23;6.50;;;15.50;99.70;;;;;;5050678;28;20454;-65
2021/06/09 01:14:24;;;;;;;11.93;5.33;;;15.40;99.70;;;;;;5050595;28;20444;-64
2021/06/09 01:16:51;;;;;;;17.17;7.47;;;15.40;99.70;;;;;;5050657;28;20464;-64
2021/06/09 01:19:17;;;;;;;17.37;7.30;;;15.50;99.70;;;;;;5049269;28;21062;-64
2021/06/09 01:21:45;;;;;;;17.67;7.80;;;15.50;99.70;;;;;;5050372;28;20440;-64
2021/06/09 01:24:12;;;;;;;23.07;6.67;;;15.50;99.70;;;;;;5050231;28;20478;-66
2021/06/09 01:26:39;;;;;;;19.23;7.23;;;15.50;99.70;;;;;;5050457;28;20444;-64
2021/06/09 01:29:06;;;;;;;13.80;5.83;;;15.50;99.70;;;;;;5050210;28;20443;-65
2021/06/09 01:31:33;;;;;;;12.57;6.33;;;15.40;99.70;;;;;;5050668;28;20614;-65
2021/06/09 01:34:04;;;;;;;17.10;5.80;;;15.50;99.70;;;;;;5050004;28;20485;-64
2021/06/09 01:36:31;;;;;;;17.67;6.37;;;15.50;99.70;;;;;;5050515;28;20447;-64
2021/06/09 01:38:58;;;;;;;16.70;6.93;;;15.50;99.70;;;;;;5050235;28;20451;-65
2021/06/09 01:41:25;;;;;;;14.30;6.00;;;15.50;99.70;;;;;;5050493;28;20447;-65
2021/06/09 01:43:53;;;;;;;16.50;6.63;;;15.50;99.70;;;;;;5049851;28;20860;-65
2021/06/09 01:46:19;;;;;;;18.33;5.67;;;15.40;99.70;;;;;;5050161;28;20985;-65
2021/06/09 01:48:45;;;;;;;17.87;6.93;;;15.40;99.70;;;;;;5050011;28;20464;-64
2021/06/09 01:51:12;;;;;;;16.70;6.90;;;15.40;99.70;;;;;;5050065;28;20483;-64
2021/06/09 01:53:39;;;;;;;16.37;6.00;;;15.40;99.70;;;;;;5049901;28;20452;-64
2021/06/09 01:56:06;;;;;;;19.70;6.17;;;15.40;99.70;;;;;;5050057;28;20462;-64
2021/06/09 01:58:32;;;;;;;16.17;7.17;;;15.40;99.70;;;;;;5050040;28;20470;-65
2021/06/09 02:00:59;;;;;;;18.63;6.87;;;15.40;99.70;;;;;;5049470;28;20444;-64
2021/06/09 02:03:25;;;;;;;13.97;5.90;;;15.40;99.70;;;;;;5049661;28;20858;-64
2021/06/09 02:05:52;;;;;;;17.20;6.50;;;15.30;99.70;;;;;;5050025;28;20440;-64
2021/06/09 02:08:18;;;;;;;17.07;6.73;;;15.30;99.70;;;;;;5049980;28;20528;-65
2021/06/09 02:10:45;;;;;;;13.00;6.10;;;15.30;99.70;;;;;;5049676;28;20479;-65
2021/06/09 02:13:15;;;;;;;16.10;6.00;;;15.30;99.70;;;;;;5049378;28;20440;-65
2021/06/09 02:15:44;;;;;;;14.60;6.10;;;15.30;99.70;;;;;;5049997;28;20985;-64
2021/06/09 02:18:12;;;;;;;17.40;6.27;;;15.30;99.70;;;;;;5049424;28;21105;-65
2021/06/09 02:20:41;;;;;;;17.50;6.60;;;15.40;99.70;;;;;;5049746;28;20440;-64
2021/06/09 02:23:10;;;;;;;14.20;5.70;;;15.40;99.70;;;;;;5049370;28;20470;-65
2021/06/09 02:25:37;;;;;;;18.80;6.87;;;15.30;99.70;;;;;;5049972;28;20444;-64
2021/06/09 02:28:04;;;;;;;15.73;6.77;;;15.30;99.70;;;;;;5049077;28;20464;-65
2021/06/09 02:30:32;;;;;;;17.80;6.50;;;15.30;99.70;;;;;;5049325;28;20486;-64
2021/06/09 02:32:58;;;;;;;16.20;7.13;;;15.30;99.70;;;;;;5049410;28;20447;-65
2021/06/09 02:35:27;;;;;;;20.00;7.13;;;15.30;99.70;;;;;;5049949;28;20439;-65
2021/06/09 02:37:54;;;;;;;17.27;6.57;;;15.30;99.70;;;;;;5049276;28;20529;-66
2021/06/09 02:40:22;;;;;;;14.80;5.87;;;15.40;99.70;;;;;;5049882;28;20444;-64
2021/06/09 02:42:49;;;;;;;11.43;5.90;;;15.30;99.70;;;;;;5049147;28;20520;-64
2021/06/09 02:45:18;;;;;;;18.20;5.93;;;15.30;99.70;;;;;;5049882;28;20439;-64
2021/06/09 02:47:49;;;;;;;16.23;6.13;;;15.30;99.70;;;;;;5049614;28;20467;-65
2021/06/09 02:50:17;;;;;;;11.07;5.20;;;15.30;99.70;;;;;;5049318;28;20483;-64
2021/06/09 02:52:49;;;;;;;14.27;5.80;;;15.40;99.70;;;;;;5049254;28;20447;-65
2021/06/09 02:55:27;;;;;;;11.17;4.67;;;15.30;99.70;;;;;;5049419;28;20455;-65
2021/06/09 02:58:03;;;;;;;10.13;4.90;;;15.20;99.70;;;;;;5049279;28;20462;-64
2021/06/09 03:00:36;;;;;;;16.50;6.03;;;15.30;99.70;;;;;;5048945;28;20473;-64
2021/06/09 03:03:10;;;;;;;13.00;5.73;;;15.30;99.70;;;;;;5049282;28;20448;-65
2021/06/09 03:05:42;;;;;;;14.47;5.80;;;15.30;99.70;;;;;;5049639;28;20455;-64
2021/06/09 03:08:21;;;;;;;12.57;5.40;;;15.20;99.70;;;;;;5049403;28;20486;-64
2021/06/09 03:10:52;;;;;;;10.27;5.37;;;15.10;99.70;;;;;;5048763;28;20533;-64
2021/06/09 03:13:28;;;;;;;10.50;5.07;;;15.10;99.70;;;;;;5049082;28;20444;-65
2021/06/09 03:16:01;;;;;;;13.00;6.03;;;15.10;99.70;;;;;;5049350;28;20462;-65
2021/06/09 03:18:36;;;;;;;11.27;5.30;;;15.10;99.70;;;;;;5048979;28;21014;-64
2021/06/09 03:21:06;;;;;;;14.80;6.03;;;15.10;99.70;;;;;;5049146;28;20501;-65
2021/06/09 03:23:42;;;;;;;15.47;6.20;;;15.20;99.70;;;;;;5048835;28;20848;-65
2021/06/09 03:26:12;;;;;;;12.40;5.47;;;15.20;99.70;;;;;;5049235;28;20455;-65
2021/06/09 03:28:46;;;;;;;10.93;5.20;;;15.10;99.70;;;;;;5048849;28;20470;-65
2021/06/09 03:31:19;;;;;;;13.73;5.90;;;15.10;99.70;;;;;;5049042;28;20479;-66
2021/06/09 03:33:51;;;;;;;10.90;5.10;;;15.10;99.70;;;;;;5048998;28;20444;-65
2021/06/09 03:36:21;;;;;;;12.50;5.80;;;15.10;99.70;;;;;;5049031;28;20451;-65
2021/06/09 03:38:52;;;;;;;12.47;4.90;;;15.10;99.70;;;;;;5048692;28;20475;-65
2021/06/09 03:41:21;;;;;;;12.40;5.37;;;15.10;99.70;;;;;;5050116;28;20807;-65
2021/06/09 03:43:52;;;;;;;16.30;6.07;;;15.10;99.70;;;;;;5052059;28;21102;-65
2021/06/09 03:46:22;;;;;;;15.70;5.50;;;15.10;99.70;;;;;;5052730;28;20771;-65
2021/06/09 03:48:51;;;;;;;17.93;6.23;;;15.10;99.70;;;;;;5053297;28;20471;-67
2021/06/09 03:51:18;;;;;;;11.57;5.60;;;15.10;99.70;;;;;;5052654;28;21010;-66
2021/06/09 03:53:46;;;;;;;14.20;5.60;;;15.00;99.70;;;;;;5051965;28;20497;-66
2021/06/09 03:56:13;;;;;;;14.00;5.37;;;15.10;99.70;;;;;;5052726;28;20452;-66
2021/06/09 03:58:41;;;;;;;12.80;5.23;;;15.10;99.70;;;;;;5052263;28;20985;-66
2021/06/09 04:01:08;;;;;;;12.53;5.17;;;15.10;99.70;;;;;;5052271;28;20463;-66
2021/06/09 04:03:38;;;;;;;16.90;6.00;;;15.00;99.70;;;;;;5051977;28;20443;-66
2021/06/09 04:06:08;;;;;;;11.90;5.13;;;15.00;99.70;;;;;;5052903;28;20447;-67
2021/06/09 04:08:36;;;;;;;16.20;6.03;;;15.00;99.70;;;;;;5051913;28;21022;-65
2021/06/09 04:11:03;;;;;;;14.70;6.30;;;15.10;99.70;;;;;;5052392;28;20507;-66
2021/06/09 04:13:30;;;;;;;12.10;5.97;;;15.00;99.70;;;;;;5052109;28;20440;-67
2021/06/09 04:15:57;;;;;;;13.47;5.70;;;15.00;99.70;;;;;;5052153;28;20452;-68
2021/06/09 04:18:27;;;;;;;11.73;5.60;;;15.00;99.70;;;;;;5052318;28;20562;-67
2021/06/09 04:20:55;;;;;;;11.00;5.30;;;15.00;99.70;;;;;;5050772;28;20439;-67
2021/06/09 04:23:22;;;;;;;17.57;6.20;;;15.10;99.70;;;;;;5050073;28;20644;-68
2021/06/09 04:25:48;;;;;;;13.23;5.97;;;15.10;99.70;;;;;;5050540;28;20457;-67
2021/06/09 04:28:19;;;;;;;16.90;5.57;;;15.10;99.70;;;;;;5051307;28;20471;-68
2021/06/09 04:30:47;;;;;;;13.07;5.30;;;15.10;99.70;;;;;;5051581;28;20484;-68
2021/06/09 04:33:13;;;;;;;12.93;5.03;;;15.20;99.70;;;;;;5051704;28;20455;-67
2021/06/09 04:35:42;;;;;;;14.27;5.70;;;15.20;99.70;;;;;;5051699;28;20457;-68
2021/06/09 04:38:13;;;;;;;11.20;5.10;;;15.20;99.70;;;;;;5051493;28;20582;-67
2021/06/09 04:40:41;;;;;;;13.17;5.13;;;15.30;99.70;;;;;;5051513;28;20451;-67
2021/06/09 04:43:08;;;;;;;12.90;5.40;;;15.30;99.70;;;;;;5051416;28;20447;-67
2021/06/09 04:45:34;;;;;;;13.40;5.47;;;15.30;99.70;;;;;;5051730;28;20440;-68
2021/06/09 04:48:01;;;;;;;13.60;5.83;;;15.30;99.70;;;;;;5051215;28;20494;-67
2021/06/09 04:50:28;;;;;;;13.37;5.70;;;15.30;99.70;;;;;;5051139;28;20480;-67
2021/06/09 04:53:10;;;;;;;13.17;5.57;;;15.30;99.70;;;;;;5050768;28;20440;-68
2021/06/09 04:55:36;;;;;;;14.67;6.70;;;15.30;99.70;;;;;;5051198;28;21008;-67
2021/06/09 04:58:04;;;;;;;14.20;5.90;;;15.40;99.70;;;;;;5051456;28;20463;-67
2021/06/09 05:00:30;;;;;;;11.73;6.00;;;15.30;99.70;;;;;;5050875;28;20486;-68
2021/06/09 05:02:56;;;;;;;13.80;5.37;;;15.30;99.70;;;;;;5050496;28;20452;-67
2021/06/09 05:05:22;;;;;;;16.43;6.60;;;15.30;99.70;;;;;;5050907;28;20448;-67
2021/06/09 05:07:49;;;;;;;15.60;6.23;;;15.30;99.70;;;;;;5050688;28;20479;-68
2021/06/09 05:10:15;;;;;;;13.40;5.27;;;15.40;99.70;;;;;;5051833;28;20476;-68
2021/06/09 05:12:44;;;;;;;18.53;6.53;;;15.40;99.70;;;;;;5050988;28;20447;-68
2021/06/09 05:15:12;;;;;;;14.50;5.90;;;15.40;99.70;;;;;;5050845;28;20803;-67
2021/06/09 05:17:43;;;;;;;23.27;6.43;;;15.40;99.70;;;;;;5050722;28;20470;-67
2021/06/09 05:20:12;;;;;;;15.87;5.93;;;15.50;99.70;;;;;;5050263;28;20440;-67
2021/06/09 05:22:42;;;;;;;11.60;5.50;;;15.70;99.70;;;;;;5050223;28;20447;-67
2021/06/09 05:25:09;;;;;;;18.00;7.30;;;15.70;99.70;;;;;;5050726;28;20828;-67
2021/06/09 05:27:37;;;;;;;10.70;5.20;;;15.70;99.70;;;;;;5050219;28;20467;-67
2021/06/09 05:30:05;;;;;;;14.67;6.23;;;15.80;99.70;;;;;;5049969;28;21302;-67
2021/06/09 05:32:32;;;;;;;16.57;6.50;;;15.80;99.70;;;;;;5049295;28;20448;-65
2021/06/09 05:35:00;;;;;;;13.70;5.60;;;15.80;99.70;;;;;;5049007;28;20444;-67
2021/06/09 05:37:27;;;;;;;15.87;5.97;;;15.90;99.70;;;;;;5049492;28;20472;-67
2021/06/09 05:39:58;;;;;;;14.77;6.00;;;15.90;99.70;;;;;;5050257;28;20451;-67
2021/06/09 05:42:25;;;;;;;14.70;6.27;;;15.90;99.70;;;;;;5050584;28;20448;-67
2021/06/09 05:44:54;;;;;;;14.10;6.13;;;16.00;99.70;;;;;;5050247;28;20443;-67
2021/06/09 05:47:20;;;;;;;14.87;5.63;;;15.90;99.70;;;;;;5050157;28;20503;-67
2021/06/09 05:49:48;;;;;;;15.10;5.90;;;15.90;99.70;;;;;;5050271;28;20444;-67
2021/06/09 05:52:14;;;;;;;17.93;6.00;;;15.90;99.70;;;;;;5050119;28;20448;-67
2021/06/09 05:54:43;;;;;;;15.10;6.90;;;16.00;99.70;;;;;;5050079;28;20443;-67
2021/06/09 05:57:11;;;;;;;16.57;6.83;;;16.10;99.70;;;;;;5050165;28;20456;-67
2021/06/09 05:59:39;;;;;;;18.33;6.70;;;16.20;99.70;;;;;;5050245;28;20455;-67
2021/06/09 06:02:06;;;;;;;16.40;6.30;;;16.20;99.70;;;;;;5049380;28;20447;-67
2021/06/09 06:04:34;;;;;;;14.20;6.80;;;16.30;99.70;;;;;;5049170;28;20447;-67
2021/06/09 06:07:02;;;;;;;20.23;6.47;;;16.30;99.70;;;;;;5049914;28;20609;-67
2021/06/09 06:09:28;;;;;;;17.30;7.67;;;16.30;99.70;;;;;;5049569;28;20448;-68
2021/06/09 06:11:55;;;;;;;14.87;6.17;;;16.40;99.70;;;;;;5049430;28;20494;-68
2021/06/09 06:14:24;;;;;;;17.90;6.80;;;16.60;99.70;;;;;;5049432;28;20451;-67
2021/06/09 06:16:51;;;;;;;19.30;6.97;;;16.60;99.70;;;;;;5048594;28;20475;-68
2021/06/09 06:19:18;;;;;;;16.20;6.03;;;16.50;99.70;;;;;;5048551;28;20456;-67
2021/06/09 06:21:44;;;;;;;18.83;7.40;;;16.50;99.70;;;;;;5049523;28;20954;-67
2021/06/09 06:24:16;;;;;;;16.80;6.73;;;16.60;99.70;;;;;;5049564;28;20443;-68
2021/06/09 06:26:43;;;;;;;14.33;6.77;;;16.60;99.70;;;;;;5050064;28;20492;-68
2021/06/09 06:29:10;;;;;;;18.30;6.30;;;16.50;99.70;;;;;;5047200;28;20463;-67
2021/06/09 06:31:37;;;;;;;13.70;6.27;;;16.40;99.70;;;;;;5038933;28;20494;-67
2021/06/09 06:34:03;;;;;;;16.63;6.17;;;16.50;99.70;;;;;;5038007;28;20518;-68
2021/06/09 06:36:30;;;;;;;22.90;7.27;;;16.50;99.70;;;;;;5049885;28;20447;-68
2021/06/09 06:38:57;;;;;;;18.23;6.73;;;16.40;99.70;;;;;;5035775;28;20464;-67
2021/06/09 06:41:27;;;;;;;20.27;7.00;;;16.30;99.70;;;;;;5041113;28;20446;-67
2021/06/09 06:43:55;;;;;;;19.20;6.87;;;16.30;99.70;;;;;;5051448;28;20505;-67
2021/06/09 06:46:21;;;;;;;22.20;7.50;;;16.40;99.70;;;;;;5046794;28;20443;-67
2021/06/09 06:48:50;;;;;;;19.30;7.00;;;16.60;99.70;;;;;;5037042;28;20460;-68
2021/06/09 06:51:17;;;;;;;14.10;6.03;;;16.60;99.70;;;;;;5039341;28;20514;-67
2021/06/09 06:53:45;;;;;;;14.30;6.20;;;16.70;99.70;;;;;;5049535;28;20473;-67
2021/06/09 06:56:12;;;;;;;18.43;7.60;;;16.90;99.70;;;;;;5048629;28;20443;-68
2021/06/09 06:58:48;;;;;;;19.00;6.50;;;17.00;99.70;;;;;;5049738;28;20494;-68
2021/06/09 07:01:15;;;;;;;23.87;7.23;;;17.10;99.70;;;;;;5045778;28;20526;-68
2021/06/09 07:03:43;;;;;;;15.60;6.83;;;17.30;99.70;;;;;;5049233;28;20451;-68
2021/06/09 07:06:09;;;;;;;17.47;7.67;;;17.50;99.70;;;;;;5049464;28;20447;-67
2021/06/09 07:08:37;;;;;;;17.53;7.67;;;17.50;99.70;;;;;;5049242;28;20518;-67
2021/06/09 07:11:04;;;;;;;17.90;6.70;;;17.60;99.70;;;;;;5049815;28;20475;-68
2021/06/09 07:13:32;;;;;;;19.57;7.47;;;17.60;99.70;;;;;;5049664;28;20440;-67
2021/06/09 07:16:02;;;;;;;21.50;8.33;;;17.70;99.70;;;;;;5051877;28;20796;-67
2021/06/09 07:18:30;;;;;;;15.17;6.90;;;17.70;99.70;;;;;;5052764;28;20464;-66
2021/06/09 07:20:57;;;;;;;18.80;7.33;;;17.80;99.70;;;;;;5043085;28;20455;-67
2021/06/09 07:23:23;;;;;;;18.60;7.07;;;17.90;99.70;;;;;;5052149;28;20471;-67
2021/06/09 07:25:51;;;;;;;17.53;6.50;;;18.00;99.70;;;;;;5053799;28;20443;-67
2021/06/09 07:28:19;;;;;;;20.30;7.63;;;18.10;99.70;;;;;;5053248;28;20966;-66
2021/06/09 07:30:46;;;;;;;19.97;7.60;;;18.20;99.70;;;;;;5052963;28;20483;-67
2021/06/09 07:33:15;;;;;;;15.00;6.50;;;18.40;99.70;;;;;;5052729;28;20470;-67
2021/06/09 07:35:41;;;;;;;16.57;6.87;;;18.50;99.70;;;;;;5052678;28;20447;-67
2021/06/09 07:38:10;;;;;;;14.93;6.50;;;18.70;99.70;;;;;;5053045;28;20490;-67
2021/06/09 07:40:42;;;;;;;14.73;6.87;;;18.70;99.70;;;;;;5046333;28;20440;-68
2021/06/09 07:43:13;;;;;;;17.40;7.23;;;18.50;99.70;;;;;;5040532;28;20459;-67
2021/06/09 07:45:42;;;;;;;17.50;7.20;;;18.50;99.70;;;;;;5032924;28;20554;-68
2021/06/09 07:48:09;;;;;;;14.10;6.73;;;18.50;99.70;;;;;;5036786;28;20466;-68
2021/06/09 07:50:41;;;;;;;18.10;7.30;;;18.40;99.70;;;;;;5047235;28;20481;-68
2021/06/09 07:53:11;;;;;;;14.23;6.30;;;18.40;99.70;;;;;;5035087;28;20457;-68
2021/06/09 07:55:41;;;;;;;25.37;7.77;;;18.50;99.70;;;;;;5048865;28;20871;-67
2021/06/09 07:58:08;;;;;;;17.70;7.87;;;18.50;99.70;;;;;;5052555;28;20505;-68
2021/06/09 08:00:35;;;;;;;20.80;8.50;;;18.60;99.70;;;;;;5051758;28;20463;-68
2021/06/09 08:03:02;;;;;;;19.13;8.10;;;18.80;99.70;;;;;;5045858;28;20449;-67
2021/06/09 08:05:28;;;;;;;17.93;7.30;;;19.00;99.70;;;;;;5040912;28;20443;-68
2021/06/09 08:07:56;;;;;;;17.43;7.63;;;19.00;99.70;;;;;;5037191;28;20468;-68
2021/06/09 08:10:23;;;;;;;16.83;7.10;;;19.10;99.70;;;;;;5043839;28;20503;-67
2021/06/09 08:12:51;;;;;;;15.30;6.77;;;19.10;99.70;;;;;;5039582;28;20445;-67
2021/06/09 08:15:17;;;;;;;16.27;7.30;;;19.30;99.70;;;;;;5036451;28;20925;-66
2021/06/09 08:17:45;;;;;;;17.63;6.93;;;19.30;99.70;;;;;;5047469;28;20511;-66
2021/06/09 08:20:14;;;;;;;21.40;7.77;;;19.40;99.70;;;;;;5042699;28;20977;-66
2021/06/09 08:22:43;;;;;;;19.70;7.77;;;19.60;99.70;;;;;;5031847;28;20448;-66
2021/06/09 08:25:16;;;;;;;20.37;8.63;;;19.90;99.70;;;;;;5041637;28;20472;-68
2021/06/09 08:27:43;;;;;;;16.70;6.83;;;19.70;99.70;;;;;;5041247;28;20572;-68
2021/06/09 08:30:11;;;;;;;17.03;6.60;;;19.70;99.70;;;;;;5032315;28;20554;-68
2021/06/09 08:32:38;;;;;;;14.67;7.10;;;19.70;99.70;;;;;;5047350;28;20959;-68
2021/06/09 08:35:10;;;;;;;14.93;7.60;;;19.80;99.70;;;;;;5043440;28;20487;-67
2021/06/09 08:37:37;;;;;;;19.80;8.07;;;20.00;99.70;;;;;;5035884;28;20830;-67
2021/06/09 08:40:06;;;;;;;15.93;7.57;;;19.80;99.70;;;;;;5050329;28;20470;-68
2021/06/09 08:42:35;;;;;;;17.67;7.90;;;19.70;99.70;;;;;;5049494;28;20440;-67
2021/06/09 08:45:03;;;;;;;19.40;7.67;;;19.80;99.70;;;;;;5038599;28;20514;-67
2021/06/09 08:47:30;;;;;;;15.73;7.20;;;19.70;99.70;;;;;;5045583;28;20509;-67
2021/06/09 08:49:57;;;;;;;20.60;7.27;;;19.80;99.70;;;;;;5047049;28;20535;-67
2021/06/09 08:52:26;;;;;;;17.10;7.60;;;19.90;99.70;;;;;;5045843;28;20816;-67
2021/06/09 08:54:53;;;;;;;15.13;7.47;;;20.10;99.70;;;;;;5045949;28;20447;-67
2021/06/09 08:57:19;;;;;;;17.70;8.00;;;20.20;99.70;;;;;;5027425;28;20473;-66
2021/06/09 08:59:47;;;;;;;19.53;8.03;;;20.30;99.70;;;;;;5026134;28;20448;-66
2021/06/09 09:02:14;;;;;;;19.83;8.10;;;20.50;99.70;;;;;;5026522;28;20441;-67
2021/06/09 09:04:42;;;;;;;19.80;8.33;;;20.40;99.70;;;;;;5028314;28;20453;-67
2021/06/09 09:07:09;;;;;;;24.90;9.97;;;20.40;99.70;;;;;;5030384;28;20534;-67
2021/06/09 09:09:36;;;;;;;22.23;8.30;;;20.40;99.70;;;;;;5030940;28;20963;-68
2021/06/09 09:12:03;;;;;;;25.37;8.80;;;20.50;99.70;;;;;;5030893;28;20480;-68
2021/06/09 09:14:29;;;;;;;21.10;8.33;;;20.80;99.70;;;;;;5030731;28;20936;-67
2021/06/09 09:17:08;;;;;;;19.80;8.67;;;20.90;99.70;;;;;;5047537;28;20463;-67
2021/06/09 09:19:40;;;;;;;21.60;8.57;;;21.20;99.70;;;;;;5046989;28;20444;-67
2021/06/09 09:22:07;;;;;;;19.87;9.13;;;21.20;99.70;;;;;;5050761;28;20883;-67
2021/06/09 09:24:39;;;;;;;22.47;8.10;;;21.20;99.70;;;;;;5050177;28;20448;-68
2021/06/09 09:27:06;;;;;;;19.30;8.37;;;21.20;99.70;;;;;;5050647;28;20525;-68
2021/06/09 09:29:33;;;;;;;17.27;7.90;;;21.20;99.70;;;;;;5050431;28;20841;-68
2021/06/09 09:32:03;;;;;;;19.47;8.23;;;21.20;99.70;;;;;;5050851;28;21010;-67
2021/06/09 09:34:37;;;;;;;18.10;8.10;;;21.10;99.70;;;;;;5049918;28;20452;-67
2021/06/09 09:37:12;;;;;;;17.10;7.80;;;21.30;99.70;;;;;;5050295;28;20478;-67
2021/06/09 09:39:41;;;;;;;16.30;7.83;;;21.50;99.70;;;;;;5049280;28;20473;-68
2021/06/09 09:42:24;;;;;;;16.27;7.30;;;21.90;99.70;;;;;;5050042;28;20493;-67
2021/06/09 09:44:51;;;;;;;21.30;8.90;;;22.10;99.70;;;;;;5048971;28;20950;-67
2021/06/09 09:47:19;;;;;;;16.87;7.90;;;22.60;99.70;;;;;;5048491;28;20467;-68
2021/06/09 09:49:48;;;;;;;18.77;8.63;;;22.90;99.70;;;;;;5050199;28;20458;-67
2021/06/09 09:52:15;;;;;;;19.57;8.57;;;22.70;99.70;;;;;;5048785;28;20477;-68
2021/06/09 09:54:44;;;;;;;18.43;7.60;;;22.50;99.70;;;;;;5050371;28;20530;-68
2021/06/09 09:57:12;;;;;;;19.80;8.50;;;22.40;99.70;;;;;;5048949;28;20459;-68
2021/06/09 09:59:39;;;;;;;18.60;7.50;;;22.80;99.70;;;;;;5050244;28;20458;-67
2021/06/09 10:02:15;;;;;;;18.50;7.57;;;23.20;99.70;;;;;;5048863;28;20973;-69
2021/06/09 10:04:47;;;;;;;18.67;8.53;;;22.90;99.70;;;;;;5049393;28;20977;-68
2021/06/09 10:07:15;;;;;;;15.80;8.03;;;23.20;99.70;;;;;;5050244;28;20902;-69
2021/06/09 10:09:43;;;;;;;15.90;7.67;;;23.80;99.70;;;;;;5047769;28;20962;-68
2021/06/09 10:12:11;;;;;;;20.70;9.00;;;24.10;99.70;;;;;;5048262;28;20580;-68
2021/06/09 10:14:40;;;;;;;18.07;8.30;;;23.50;99.70;;;;;;5047932;28;20455;-68
2021/06/09 10:17:08;;;;;;;19.60;8.50;;;23.60;99.70;;;;;;5048043;28;20529;-68
2021/06/09 10:19:36;;;;;;;19.50;9.17;;;24.00;99.70;;;;;;5047753;28;20446;-68
2021/06/09 10:22:05;;;;;;;22.00;9.37;;;23.20;99.70;;;;;;5029443;28;20458;-68
2021/06/09 10:24:43;;;;;;;17.63;7.90;;;23.30;99.70;;;;;;5029491;28;20958;-68
2021/06/09 10:27:09;;;;;;;20.60;9.13;;;23.40;99.70;;;;;;5030062;28;20468;-68
2021/06/09 10:29:36;;;;;;;20.03;8.87;;;22.80;99.70;;;;;;5040509;28;20443;-68
2021/06/09 10:32:05;;;;;;;16.63;8.03;;;22.60;99.70;;;;;;5049678;28;20578;-68
2021/06/09 10:34:33;;;;;;;20.37;7.73;;;22.70;99.70;;;;;;5046891;28;20968;-68
2021/06/09 10:37:01;;;;;;;18.63;8.00;;;22.50;99.70;;;;;;5048130;28;20479;-69
2021/06/09 10:39:32;;;;;;;21.37;9.10;;;22.80;99.70;;;;;;5036414;28;20464;-69
2021/06/09 10:42:01;;;;;;;20.93;8.93;;;22.60;99.70;;;;;;5034059;28;20439;-68
2021/06/09 10:44:31;;;;;;;18.10;7.83;;;22.70;99.70;;;;;;5043768;28;20526;-68
2021/06/09 10:46:59;;;;;;;18.23;8.43;;;22.90;99.70;;;;;;5041328;28;20469;-68
2021/06/09 10:49:26;;;;;;;18.50;8.23;;;23.00;99.70;;;;;;5046406;28;20803;-69
2021/06/09 10:51:54;;;;;;;16.53;7.70;;;22.90;99.70;;;;;;5053319;28;20486;-68
2021/06/09 10:54:24;;;;;;;20.77;9.13;;;22.60;99.70;;;;;;5041532;28;20547;-69
2021/06/09 10:56:51;;;;;;;18.20;8.20;;;22.70;99.70;;;;;;5049395;28;20467;-68
2021/06/09 10:59:21;;;;;;;18.67;8.33;;;22.80;99.70;;;;;;5049337;28;20451;-68
2021/06/09 11:01:50;;;;;;;19.40;8.67;;;22.70;99.70;;;;;;5048881;28;20467;-68
2021/06/09 11:04:17;;;;;;;16.30;8.00;;;22.90;99.70;;;;;;5053265;28;20464;-68
2021/06/09 11:06:46;;;;;;;19.13;8.53;;;22.90;99.70;;;;;;5048611;28;20865;-68
2021/06/09 11:09:21;;;;;;;23.47;9.60;;;22.90;99.70;;;;;;5039426;28;20448;-68
2021/06/09 11:12:04;;;;;;;16.00;7.67;;;22.90;99.70;;;;;;5053569;28;20475;-68
2021/06/09 11:14:31;;;;;;;17.43;7.50;;;22.90;99.70;;;;;;5052249;28;20455;-68
2021/06/09 11:16:57;;;;;;;15.57;8.17;;;22.70;99.70;;;;;;5052673;28;20471;-68
2021/06/09 11:19:37;;;;;;;19.10;7.50;;;22.80;99.70;;;;;;5052533;28;20479;-68
2021/06/09 11:22:14;;;;;;;16.37;7.20;;;22.80;99.70;;;;;;5052873;28;21047;-68
2021/06/09 11:24:40;;;;;;;16.67;7.30;;;22.80;99.70;;;;;;5048619;28;20523;-68
2021/06/09 11:27:26;;;;;;;17.97;7.30;;;22.90;99.70;;;;;;5048952;28;20498;-68
2021/06/09 11:29:53;;;;;;;14.23;7.17;;;23.00;99.70;;;;;;5043988;28;20444;-68
2021/06/09 11:32:23;;;;;;;12.33;6.50;;;23.00;99.70;;;;;;5041834;28;20483;-68
2021/06/09 11:34:56;;;;;;;14.70;6.50;;;22.90;99.70;;;;;;5041847;28;20530;-68
2021/06/09 11:37:23;;;;;;;14.23;6.70;;;23.00;99.70;;;;;;5043422;28;20479;-69
2021/06/09 11:39:59;;;;;;;13.10;6.33;;;22.80;99.70;;;;;;5048692;28;20508;-69
2021/06/09 11:42:25;;;;;;;16.47;7.23;;;22.80;99.70;;;;;;5052747;28;20474;-69
2021/06/09 11:44:53;;;;;;;13.03;5.97;;;22.90;99.70;;;;;;5042333;28;20467;-69
2021/06/09 11:47:22;;;;;;;13.40;6.07;;;23.20;99.70;;;;;;5032218;28;20839;-69
2021/06/09 11:49:50;;;;;;;12.77;5.90;;;23.40;99.70;;;;;;5040283;28;20999;-69
2021/06/09 11:52:17;;;;;;;14.60;7.40;;;23.40;99.70;;;;;;5052640;28;20516;-69
2021/06/09 11:54:44;;;;;;;12.33;6.13;;;23.50;99.70;;;;;;5045463;28;20444;-69
2021/06/09 11:57:18;;;;;;;12.20;5.87;;;23.40;99.70;;;;;;5052937;28;20467;-69
2021/06/09 11:59:45;;;;;;;11.77;5.47;;;23.20;99.70;;;;;;5051366;28;20452;-68
2021/06/09 12:02:19;;;;;;;12.50;6.10;;;23.30;99.70;;;;;;5050986;28;20501;-67
2021/06/09 12:04:46;;;;;;;9.03;4.90;;;23.60;99.70;;;;;;5049555;28;20900;-67
2021/06/09 12:07:20;;;;;;;10.80;5.50;;;23.70;99.70;;;;;;5052278;28;20615;-69
2021/06/09 12:09:48;;;;;;;12.43;5.80;;;23.70;99.70;;;;;;5052434;28;20458;-69
2021/06/09 12:12:16;;;;;;;12.07;5.87;;;23.90;99.70;;;;;;5039291;28;20530;-69
2021/06/09 12:14:44;;;;;;;9.70;5.03;;;23.90;99.70;;;;;;5041025;28;20451;-69
2021/06/09 12:17:22;;;;;;;13.03;5.20;;;23.90;99.70;;;;;;5052243;28;20475;-67
2021/06/09 12:19:51;;;;;;;12.30;5.97;;;23.90;99.70;;;;;;5032399;28;20451;-68
2021/06/09 12:22:20;;;;;;;12.63;6.20;;;23.80;99.70;;;;;;5039902;28;20528;-67
2021/06/09 12:25:01;;;;;;;11.03;5.97;;;23.80;99.70;;;;;;5062556;28;20446;-68
2021/06/09 12:27:28;;;;;;;11.47;5.57;;;23.70;99.70;;;;;;5071660;28;20551;-67
2021/06/09 12:29:55;;;;;;;13.40;5.87;;;23.60;99.70;;;;;;5072074;28;20772;-68
2021/06/09 12:32:24;;;;;;;11.50;5.67;;;23.80;99.70;;;;;;5060967;28;20479;-68
2021/06/09 12:35:00;;;;;;;12.07;5.87;;;23.80;99.70;;;;;;5051465;28;20443;-68
2021/06/09 12:37:28;;;;;;;10.80;6.00;;;23.70;99.70;;;;;;5051482;28;20475;-68
2021/06/09 12:39:57;;;;;;;10.73;5.60;;;23.80;99.70;;;;;;5051201;28;20494;-70
2021/06/09 12:42:23;;;;;;;13.87;6.13;;;23.80;99.70;;;;;;5051753;28;20455;-68